Time;durP1;ratioP1;P1;durP2;ratioP2;P2;SDS_P1;SDS_P2;PMS_P1;PMS_P2;Temp;Humidity;BMP_temperature;BMP_pressure;BME280_temperature;BME280_humidity;BME280_pressure;Samples;Min_cycle;Max_cycle;Signal;HPM_P1;HPM_P2
2022/01/30 00:01:40;;;;;;;47.85;10.10;;;;;;;;;;4955780;28;20097;-70
2022/01/30 00:04:06;;;;;;;46.65;9.52;;;;;;;;;;4964343;28;20030;-70
2022/01/30 00:06:31;;;;;;;48.38;10.50;;;;;;;;;;4956272;28;23231;-70
2022/01/30 00:08:56;;;;;;;57.00;10.18;;;;;;;;;;4969987;28;20087;-69
2022/01/30 00:11:27;;;;;;;42.72;8.95;;;;;;;;;;4970583;28;20037;-70
2022/01/30 00:13:52;;;;;;;61.75;16.38;;;;;;;;;;4955142;28;20136;-69
2022/01/30 00:16:20;;;;;;;56.63;11.30;;;;;;;;;;4970362;28;20391;-70
2022/01/30 00:21:14;;;;;;;42.28;7.03;;;;;;;;;;4970550;28;20030;-70
2022/01/30 00:23:51;;;;;;;42.47;10.52;;;;;;;;;;4968187;28;20075;-70
2022/01/30 00:26:18;;;;;;;37.75;7.47;;;;;;;;;;4960105;28;20045;-70
2022/01/30 00:28:43;;;;;;;54.78;12.20;;;;;;;;;;4964239;28;20053;-69
2022/01/30 00:31:09;;;;;;;33.38;7.15;;;;;;;;;;4954190;28;20651;-69
2022/01/30 00:33:34;;;;;;;30.75;7.53;;;;;;;;;;4971020;28;20044;-69
2022/01/30 00:36:00;;;;;;;30.27;8.57;;;;;;;;;;4967712;28;20033;-70
2022/01/30 00:38:26;;;;;;;22.48;4.88;;;;;;;;;;4964136;28;20069;-70
2022/01/30 00:40:52;;;;;;;15.85;5.35;;;;;;;;;;4974724;28;20073;-69
2022/01/30 00:43:18;;;;;;;23.73;5.95;;;;;;;;;;4956832;28;20513;-71
2022/01/30 00:45:43;;;;;;;30.58;5.28;;;;;;;;;;4973122;28;20157;-71
2022/01/30 00:48:09;;;;;;;22.33;4.10;;;;;;;;;;4967016;28;20121;-72
2022/01/30 00:50:34;;;;;;;36.92;6.30;;;;;;;;;;4962891;28;23880;-69
2022/01/30 00:53:00;;;;;;;37.42;8.20;;;;;;;;;;4967514;28;20107;-69
2022/01/30 00:55:26;;;;;;;37.00;6.32;;;;;;;;;;4957801;28;20061;-69
2022/01/30 00:57:52;;;;;;;33.53;8.75;;;;;;;;;;4973515;28;20168;-70
2022/01/30 01:00:17;;;;;;;35.42;8.27;;;;;;;;;;4967447;28;20032;-69
2022/01/30 01:02:43;;;;;;;46.40;10.88;;;;;;;;;;4965225;28;20068;-69
2022/01/30 01:05:08;;;;;;;40.85;10.13;;;;;;;;;;4975664;28;20029;-69
2022/01/30 01:07:35;;;;;;;54.03;9.82;;;;;;;;;;4957589;28;20218;-69
2022/01/30 01:23:27;;;;;;;;;;;;;;;;;;4973404;28;20018;-69
2022/01/30 01:25:53;;;;;;;38.35;7.45;;;;;;;;;;4957965;28;19920;-70
2022/01/30 01:28:18;;;;;;;46.00;7.72;;;;;;;;;;4972948;28;23960;-69
2022/01/30 01:30:45;;;;;;;52.33;8.23;;;;;;;;;;4966696;28;21079;-69
2022/01/30 01:33:10;;;;;;;53.40;13.80;;;;;;;;;;4963189;28;20233;-70
2022/01/30 01:35:36;;;;;;;47.17;12.38;;;;;;;;;;4971282;28;20934;-69
2022/01/30 01:38:03;;;;;;;45.17;7.70;;;;;;;;;;4956045;28;20053;-69
2022/01/30 01:40:29;;;;;;;50.35;10.02;;;;;;;;;;4972378;28;20044;-69
2022/01/30 01:42:55;;;;;;;46.65;9.93;;;;;;;;;;4956333;28;20053;-69
2022/01/30 01:45:23;;;;;;;55.70;10.30;;;;;;;;;;4972729;28;20061;-69
2022/01/30 01:47:48;;;;;;;61.60;12.13;;;;;;;;;;4970941;28;20030;-69
2022/01/30 01:50:27;;;;;;;67.00;14.85;;;;;;;;;;4952068;28;20053;-69
2022/01/30 01:52:53;;;;;;;64.13;16.88;;;;;;;;;;4970820;28;20064;-69
2022/01/30 01:55:18;;;;;;;66.35;14.13;;;;;;;;;;4954679;28;20041;-69
2022/01/30 01:57:43;;;;;;;64.00;13.90;;;;;;;;;;4964395;28;20033;-69
2022/01/30 02:00:09;;;;;;;62.13;13.02;;;;;;;;;;4961279;28;20025;-69
2022/01/30 02:02:34;;;;;;;61.30;12.25;;;;;;;;;;4957976;28;20084;-69
2022/01/30 02:05:02;;;;;;;57.40;11.63;;;;;;;;;;4972249;28;20103;-69
2022/01/30 02:10:05;;;;;;;56.85;12.57;;;;;;;;;;4971265;28;20107;-69
2022/01/30 02:12:48;;;;;;;56.63;12.13;;;;;;;;;;4965728;28;20030;-69
2022/01/30 02:26:16;;;;;;;56.30;13.05;;;;;;;;;;4976527;28;20652;-69
2022/01/30 02:28:41;;;;;;;68.30;13.00;;;;;;;;;;4985284;28;20041;-69
2022/01/30 02:31:11;;;;;;;61.80;12.05;;;;;;;;;;4954837;28;20491;-69
2022/01/30 02:33:39;;;;;;;53.90;9.63;;;;;;;;;;4971988;28;20033;-69
2022/01/30 02:36:05;;;;;;;60.63;14.82;;;;;;;;;;4972687;28;20045;-69
2022/01/30 02:38:30;;;;;;;55.58;16.83;;;;;;;;;;4934632;28;20048;-69
2022/01/30 02:40:57;;;;;;;62.70;13.60;;;;;;;;;;4974345;28;20036;-69
2022/01/30 02:43:28;;;;;;;61.47;14.82;;;;;;;;;;4960125;28;20057;-69
2022/01/30 02:46:22;;;;;;;66.38;13.70;;;;;;;;;;4971512;28;20080;-70
2022/01/30 02:48:52;;;;;;;74.47;14.75;;;;;;;;;;4963793;28;20153;-70
2022/01/30 02:51:21;;;;;;;56.08;11.05;;;;;;;;;;4961365;28;20049;-69
2022/01/30 02:53:55;;;;;;;68.07;13.43;;;;;;;;;;4970560;28;20525;-69
2022/01/30 02:56:20;;;;;;;69.82;15.32;;;;;;;;;;4956309;28;20400;-69
2022/01/30 02:58:46;;;;;;;78.47;16.23;;;;;;;;;;4970286;28;20026;-69
2022/01/30 03:01:11;;;;;;;71.35;16.52;;;;;;;;;;4955581;28;20050;-69
2022/01/30 03:03:36;;;;;;;64.20;14.38;;;;;;;;;;4970956;28;20052;-69
2022/01/30 03:06:02;;;;;;;69.75;17.08;;;;;;;;;;4969897;28;20136;-69
2022/01/30 03:08:27;;;;;;;67.55;16.33;;;;;;;;;;4956534;28;20156;-69
2022/01/30 03:10:52;;;;;;;73.50;13.52;;;;;;;;;;4971818;28;20026;-69
2022/01/30 03:13:18;;;;;;;73.60;15.90;;;;;;;;;;4953196;28;23650;-69
2022/01/30 03:15:43;;;;;;;70.15;17.90;;;;;;;;;;4970424;28;20191;-69
2022/01/30 03:18:08;;;;;;;61.45;14.10;;;;;;;;;;4968575;28;20031;-69
2022/01/30 03:20:34;;;;;;;70.75;16.45;;;;;;;;;;4949797;28;20157;-69
2022/01/30 03:23:01;;;;;;;71.07;13.63;;;;;;;;;;4969646;28;20088;-69
2022/01/30 03:25:26;;;;;;;71.00;14.23;;;;;;;;;;4956434;28;20096;-69
2022/01/30 03:27:53;;;;;;;57.00;12.10;;;;;;;;;;4981524;28;20044;-69
2022/01/30 03:30:26;;;;;;;58.85;11.15;;;;;;;;;;4969186;28;20407;-69
2022/01/30 03:32:51;;;;;;;70.13;16.02;;;;;;;;;;4954905;28;20053;-69
2022/01/30 03:35:17;;;;;;;71.90;14.90;;;;;;;;;;4971146;28;20088;-69
2022/01/30 03:37:42;;;;;;;67.07;15.70;;;;;;;;;;4954340;28;20109;-70
2022/01/30 03:40:08;;;;;;;62.72;13.10;;;;;;;;;;4969247;28;20030;-69
2022/01/30 03:42:33;;;;;;;64.70;12.70;;;;;;;;;;4970955;28;20026;-70
2022/01/30 03:44:58;;;;;;;55.33;10.27;;;;;;;;;;4955432;28;20568;-69
2022/01/30 03:47:26;;;;;;;65.07;12.88;;;;;;;;;;4967977;28;20035;-69
2022/01/30 03:49:51;;;;;;;58.13;12.75;;;;;;;;;;4951484;28;20045;-70
2022/01/30 03:52:17;;;;;;;91.55;20.75;;;;;;;;;;4969785;28;20034;-69
2022/01/30 03:54:42;;;;;;;64.78;12.07;;;;;;;;;;4967370;28;20077;-69
2022/01/30 03:57:07;;;;;;;71.50;14.20;;;;;;;;;;4956156;28;20049;-69
2022/01/30 03:59:33;;;;;;;75.18;13.05;;;;;;;;;;4970519;28;20076;-69
2022/01/30 04:01:58;;;;;;;71.63;11.07;;;;;;;;;;4954375;28;20132;-70
2022/01/30 04:04:23;;;;;;;59.00;10.38;;;;;;;;;;4969483;28;20017;-70
2022/01/30 04:06:49;;;;;;;67.03;10.80;;;;;;;;;;4967010;28;20478;-70
2022/01/30 04:09:15;;;;;;;60.63;12.00;;;;;;;;;;4962040;28;20046;-70
2022/01/30 04:11:40;;;;;;;73.60;15.95;;;;;;;;;;4972216;28;20397;-70
2022/01/30 04:14:05;;;;;;;74.50;15.98;;;;;;;;;;4956119;28;20049;-70
2022/01/30 04:16:31;;;;;;;86.07;19.85;;;;;;;;;;4972515;28;20034;-70
2022/01/30 04:18:57;;;;;;;73.65;14.48;;;;;;;;;;4962756;28;20087;-70
2022/01/30 04:21:23;;;;;;;65.47;11.45;;;;;;;;;;4960174;28;20046;-70
2022/01/30 04:23:48;;;;;;;65.72;11.15;;;;;;;;;;4973226;28;20049;-70
2022/01/30 04:26:13;;;;;;;68.30;11.20;;;;;;;;;;4958532;28;20050;-70
2022/01/30 04:28:39;;;;;;;65.20;13.30;;;;;;;;;;4973439;28;20491;-70
2022/01/30 04:31:04;;;;;;;73.70;13.23;;;;;;;;;;4968853;28;20743;-70
2022/01/30 04:33:30;;;;;;;84.18;17.55;;;;;;;;;;4962738;28;20129;-70
2022/01/30 04:35:57;;;;;;;69.63;12.75;;;;;;;;;;4973580;28;20022;-70
2022/01/30 04:38:33;;;;;;;82.38;15.25;;;;;;;;;;4956270;28;20045;-70
2022/01/30 04:41:24;;;;;;;85.13;13.10;;;;;;;;;;4971333;28;20030;-70
2022/01/30 04:52:26;;;;;;;75.00;13.82;;;;;;;;;;4963088;28;20127;-70
2022/01/30 04:57:24;;;;;;;78.03;11.57;;;;;;;;;;4954879;28;20054;-70
2022/01/30 05:00:20;;;;;;;64.70;11.20;;;;;;;;;;4970130;28;21952;-70
2022/01/30 05:07:58;;;;;;;59.50;10.50;;;;;;;;;;4954793;28;20234;-70
2022/01/30 05:10:23;;;;;;;54.92;8.73;;;;;;;;;;4967552;28;20104;-70
2022/01/30 05:12:53;;;;;;;69.60;10.55;;;;;;;;;;4972721;28;20067;-70
2022/01/30 05:15:20;;;;;;;61.72;10.00;;;;;;;;;;4956559;28;21031;-71
2022/01/30 05:17:45;;;;;;;65.72;11.02;;;;;;;;;;4966442;28;21943;-70
2022/01/30 05:20:11;;;;;;;56.78;9.65;;;;;;;;;;4957203;28;20061;-70
2022/01/30 05:22:36;;;;;;;64.53;11.75;;;;;;;;;;4971543;28;20137;-70
2022/01/30 05:25:02;;;;;;;79.70;11.65;;;;;;;;;;4970566;28;20024;-70
2022/01/30 05:27:27;;;;;;;79.30;10.75;;;;;;;;;;4955883;28;20057;-70
2022/01/30 05:29:53;;;;;;;87.47;12.05;;;;;;;;;;4971979;28;20049;-70
2022/01/30 05:32:18;;;;;;;81.40;13.07;;;;;;;;;;4953472;28;20064;-70
2022/01/30 05:34:44;;;;;;;85.00;12.27;;;;;;;;;;4965892;28;20110;-70
2022/01/30 05:37:11;;;;;;;89.13;14.75;;;;;;;;;;4968673;28;20038;-69
2022/01/30 05:39:36;;;;;;;75.97;11.73;;;;;;;;;;4959034;28;20041;-70
2022/01/30 05:42:02;;;;;;;69.53;11.90;;;;;;;;;;4969188;28;20584;-70
2022/01/30 05:44:42;;;;;;;75.05;12.70;;;;;;;;;;4955263;28;20501;-70
2022/01/30 05:47:10;;;;;;;73.47;11.63;;;;;;;;;;4972147;28;20132;-69
2022/01/30 05:49:37;;;;;;;78.78;12.73;;;;;;;;;;4963653;28;20358;-70
2022/01/30 05:52:02;;;;;;;62.97;10.07;;;;;;;;;;4971034;28;20065;-70
2022/01/30 05:54:27;;;;;;;48.05;8.85;;;;;;;;;;4970455;28;20018;-70
2022/01/30 05:56:53;;;;;;;56.85;10.77;;;;;;;;;;4970606;28;20087;-70
2022/01/30 05:59:18;;;;;;;65.95;8.82;;;;;;;;;;4970697;28;20033;-70
2022/01/30 06:01:43;;;;;;;63.95;8.48;;;;;;;;;;4964627;28;22712;-71
2022/01/30 06:04:09;;;;;;;70.38;12.00;;;;;;;;;;4961439;28;20133;-71
2022/01/30 06:06:34;;;;;;;77.75;12.20;;;;;;;;;;4975333;28;20585;-71
2022/01/30 06:09:41;;;;;;;66.45;11.02;;;;;;;;;;4955628;28;20041;-71
2022/01/30 06:11:49;;;;;;;65.72;10.10;;;;;;;;;;4973872;28;20038;-71
2022/01/30 06:14:15;;;;;;;52.70;10.25;;;;;;;;;;4956323;28;20045;-70
2022/01/30 06:16:40;;;;;;;72.38;10.75;;;;;;;;;;4972097;28;20115;-70
2022/01/30 06:19:06;;;;;;;63.55;11.75;;;;;;;;;;4969748;28;20381;-70
2022/01/30 06:21:31;;;;;;;65.40;9.32;;;;;;;;;;4956674;28;20085;-70
2022/01/30 06:23:56;;;;;;;53.75;9.63;;;;;;;;;;4970454;28;20061;-70
2022/01/30 06:26:22;;;;;;;63.10;10.23;;;;;;;;;;4955143;28;21828;-69
2022/01/30 06:28:47;;;;;;;61.42;10.80;;;;;;;;;;4963247;28;20032;-69
2022/01/30 06:31:12;;;;;;;75.00;10.88;;;;;;;;;;4970627;28;20037;-69
2022/01/30 06:33:38;;;;;;;81.38;13.25;;;;;;;;;;4932905;28;20169;-69
2022/01/30 06:36:03;;;;;;;56.00;9.52;;;;;;;;;;4962455;28;20030;-70
2022/01/30 06:38:28;;;;;;;66.50;10.23;;;;;;;;;;4950749;28;20156;-70
2022/01/30 06:40:54;;;;;;;84.00;11.45;;;;;;;;;;4971175;28;20149;-70
2022/01/30 06:43:19;;;;;;;77.15;11.50;;;;;;;;;;4980095;28;20091;-70
2022/01/30 06:45:44;;;;;;;69.40;11.38;;;;;;;;;;4955739;28;20049;-69
2022/01/30 06:48:09;;;;;;;63.05;10.57;;;;;;;;;;4969971;28;20038;-69
2022/01/30 06:50:35;;;;;;;49.38;9.32;;;;;;;;;;4953927;28;20049;-70
2022/01/30 06:53:00;;;;;;;60.20;10.43;;;;;;;;;;4969645;28;20584;-69
2022/01/30 06:55:26;;;;;;;74.35;9.95;;;;;;;;;;4969388;28;20026;-69
2022/01/30 06:57:51;;;;;;;56.08;8.73;;;;;;;;;;4954049;28;20061;-70
2022/01/30 07:00:16;;;;;;;56.03;10.27;;;;;;;;;;4971058;28;20193;-70
2022/01/30 07:02:42;;;;;;;74.43;10.10;;;;;;;;;;4956006;28;20081;-70
2022/01/30 07:05:07;;;;;;;59.28;10.63;;;;;;;;;;4971013;28;20388;-70
2022/01/30 07:07:33;;;;;;;73.32;11.50;;;;;;;;;;4965953;28;20081;-71
2022/01/30 07:09:58;;;;;;;51.45;9.55;;;;;;;;;;4952859;28;20053;-70
2022/01/30 07:12:23;;;;;;;59.72;9.27;;;;;;;;;;4971976;28;20145;-70
2022/01/30 07:14:49;;;;;;;47.80;8.73;;;;;;;;;;4955597;28;20915;-70
2022/01/30 07:17:14;;;;;;;56.00;9.52;;;;;;;;;;4980466;28;20057;-70
2022/01/30 07:19:40;;;;;;;61.42;9.23;;;;;;;;;;4967967;28;20030;-70
2022/01/30 07:22:05;;;;;;;49.17;9.10;;;;;;;;;;4957964;28;20148;-70
2022/01/30 07:24:30;;;;;;;55.15;9.25;;;;;;;;;;4951280;28;20041;-70
2022/01/30 07:26:56;;;;;;;49.30;8.80;;;;;;;;;;4955362;28;23398;-70
2022/01/30 07:29:21;;;;;;;55.03;9.25;;;;;;;;;;4969564;28;20160;-70
2022/01/30 07:31:47;;;;;;;56.97;7.65;;;;;;;;;;4961739;28;20040;-70
2022/01/30 07:34:12;;;;;;;47.30;7.63;;;;;;;;;;4956451;28;20053;-70
2022/01/30 07:36:38;;;;;;;54.60;8.20;;;;;;;;;;4970287;28;22776;-70
2022/01/30 07:39:06;;;;;;;42.83;8.15;;;;;;;;;;4955349;28;20050;-70
2022/01/30 07:41:32;;;;;;;54.22;9.45;;;;;;;;;;4970664;28;20030;-70
2022/01/30 07:43:59;;;;;;;59.95;13.10;;;;;;;;;;4963888;28;20022;-70
2022/01/30 07:46:24;;;;;;;57.55;10.65;;;;;;;;;;4959157;28;20137;-70
2022/01/30 07:48:49;;;;;;;57.75;8.82;;;;;;;;;;4970017;28;20026;-70
2022/01/30 07:51:15;;;;;;;58.42;9.38;;;;;;;;;;4954892;28;21106;-71
2022/01/30 07:53:40;;;;;;;47.75;8.43;;;;;;;;;;4970599;28;20052;-71
2022/01/30 07:56:05;;;;;;;45.13;8.57;;;;;;;;;;4962627;28;20038;-71
2022/01/30 07:58:30;;;;;;;67.28;10.77;;;;;;;;;;4958959;28;20054;-70
2022/01/30 08:00:56;;;;;;;49.17;8.50;;;;;;;;;;4970049;28;20026;-70
2022/01/30 08:03:22;;;;;;;58.65;9.85;;;;;;;;;;4954826;28;20064;-70
2022/01/30 08:05:48;;;;;;;50.97;9.15;;;;;;;;;;4970867;28;20033;-70
2022/01/30 08:08:13;;;;;;;53.72;11.40;;;;;;;;;;4964193;28;20472;-71
2022/01/30 08:10:38;;;;;;;52.83;10.45;;;;;;;;;;4936769;28;20049;-70
2022/01/30 08:13:03;;;;;;;60.58;10.00;;;;;;;;;;4968915;28;20157;-70
2022/01/30 08:15:29;;;;;;;64.47;9.70;;;;;;;;;;4951464;28;20517;-70
2022/01/30 08:17:54;;;;;;;46.13;8.98;;;;;;;;;;4969950;28;20037;-70
2022/01/30 08:20:21;;;;;;;49.40;10.30;;;;;;;;;;4966485;28;20068;-70
2022/01/30 08:22:50;;;;;;;58.10;11.65;;;;;;;;;;4960071;28;21102;-70
2022/01/30 08:25:16;;;;;;;61.78;10.05;;;;;;;;;;4962968;28;20054;-70
2022/01/30 08:27:42;;;;;;;74.70;11.40;;;;;;;;;;4953779;28;20153;-70
2022/01/30 08:30:07;;;;;;;60.75;10.60;;;;;;;;;;4969993;28;20033;-71
2022/01/30 08:32:36;;;;;;;68.63;11.07;;;;;;;;;;4962464;28;20040;-70
2022/01/30 08:35:02;;;;;;;73.40;11.23;;;;;;;;;;4960270;28;20038;-70
2022/01/30 08:37:28;;;;;;;58.10;10.98;;;;;;;;;;4963967;28;20131;-70
2022/01/30 08:39:53;;;;;;;62.08;10.32;;;;;;;;;;4956149;28;20132;-70
2022/01/30 08:42:18;;;;;;;52.17;9.55;;;;;;;;;;4970649;28;20112;-70
2022/01/30 08:44:43;;;;;;;68.32;10.50;;;;;;;;;;4955915;28;20526;-69
2022/01/30 08:47:09;;;;;;;60.30;10.75;;;;;;;;;;4961024;28;20054;-69
2022/01/30 08:49:34;;;;;;;60.95;9.23;;;;;;;;;;4968339;28;20505;-71
2022/01/30 08:51:59;;;;;;;65.15;10.85;;;;;;;;;;4955084;28;20053;-69
2022/01/30 08:54:25;;;;;;;52.13;9.75;;;;;;;;;;4972049;28;20040;-69
2022/01/30 08:56:50;;;;;;;61.72;9.25;;;;;;;;;;4973799;28;20073;-69
2022/01/30 08:59:15;;;;;;;62.17;9.45;;;;;;;;;;4973767;28;20046;-71
2022/01/30 09:01:41;;;;;;;51.47;8.75;;;;;;;;;;4982891;28;22999;-71
2022/01/30 09:04:07;;;;;;;63.92;9.80;;;;;;;;;;4973541;28;21095;-69
2022/01/30 09:06:36;;;;;;;45.85;8.25;;;;;;;;;;4970145;28;20065;-69
2022/01/30 09:09:03;;;;;;;45.08;8.88;;;;;;;;;;4949672;28;20087;-69
2022/01/30 09:11:28;;;;;;;46.58;9.85;;;;;;;;;;4972476;28;20037;-69
2022/01/30 09:13:53;;;;;;;66.78;11.00;;;;;;;;;;4981502;28;20038;-70
2022/01/30 09:16:19;;;;;;;55.65;12.40;;;;;;;;;;4957460;28;20064;-69
2022/01/30 09:18:44;;;;;;;68.70;14.93;;;;;;;;;;4973514;28;23690;-69
2022/01/30 09:21:09;;;;;;;68.05;12.35;;;;;;;;;;4958201;28;20060;-69
2022/01/30 09:23:35;;;;;;;58.22;9.63;;;;;;;;;;4975943;28;20085;-69
2022/01/30 09:26:00;;;;;;;72.65;11.38;;;;;;;;;;4973032;28;20116;-70
2022/01/30 09:28:25;;;;;;;61.70;13.10;;;;;;;;;;4958266;28;20051;-70
2022/01/30 09:30:57;;;;;;;47.33;8.43;;;;;;;;;;4952173;28;20703;-69
2022/01/30 09:33:22;;;;;;;51.50;10.02;;;;;;;;;;4947576;28;20043;-70
2022/01/30 09:35:47;;;;;;;53.78;11.02;;;;;;;;;;4964963;28;20045;-69
2022/01/30 09:38:13;;;;;;;45.53;8.57;;;;;;;;;;4966284;28;20973;-70
2022/01/30 09:40:39;;;;;;;52.22;8.85;;;;;;;;;;4949064;28;20068;-70
2022/01/30 09:43:04;;;;;;;61.60;10.30;;;;;;;;;;4964690;28;20034;-69
2022/01/30 09:45:29;;;;;;;59.05;9.68;;;;;;;;;;4949002;28;20042;-69
2022/01/30 09:47:56;;;;;;;54.00;9.60;;;;;;;;;;4965429;28;20121;-69
2022/01/30 09:50:22;;;;;;;56.72;10.60;;;;;;;;;;4965221;28;20068;-70
2022/01/30 09:52:47;;;;;;;60.42;14.32;;;;;;;;;;4949344;28;20077;-69
2022/01/30 09:55:15;;;;;;;53.25;9.98;;;;;;;;;;4965786;28;20025;-70
2022/01/30 09:57:40;;;;;;;50.42;10.48;;;;;;;;;;4949840;28;20161;-70
2022/01/30 10:00:06;;;;;;;46.40;9.45;;;;;;;;;;4965363;28;20040;-70
2022/01/30 10:02:32;;;;;;;51.20;8.90;;;;;;;;;;4965823;28;20032;-70
2022/01/30 10:04:57;;;;;;;58.90;12.15;;;;;;;;;;4948039;28;20410;-70
2022/01/30 10:07:37;;;;;;;46.50;9.80;;;;;;;;;;4965553;28;20030;-70
2022/01/30 10:10:09;;;;;;;49.78;10.68;;;;;;;;;;4950117;28;20054;-70
2022/01/30 10:12:34;;;;;;;56.80;10.60;;;;;;;;;;4952151;28;20044;-70
2022/01/30 10:15:07;;;;;;;59.88;10.00;;;;;;;;;;4960518;28;20030;-70
2022/01/30 10:17:32;;;;;;;55.13;10.77;;;;;;;;;;4954128;28;20045;-70
2022/01/30 10:20:06;;;;;;;45.08;10.02;;;;;;;;;;4965377;28;20386;-70
2022/01/30 10:22:33;;;;;;;52.35;10.05;;;;;;;;;;4950003;28;20048;-70
2022/01/30 10:24:59;;;;;;;54.72;11.13;;;;;;;;;;4961947;28;20037;-69
2022/01/30 10:27:25;;;;;;;55.28;9.13;;;;;;;;;;4956025;28;20033;-69
2022/01/30 10:29:58;;;;;;;46.20;9.98;;;;;;;;;;4953655;28;20061;-70
2022/01/30 10:32:24;;;;;;;60.40;9.68;;;;;;;;;;4964695;28;20026;-70
2022/01/30 10:35:00;;;;;;;54.17;10.25;;;;;;;;;;4947124;28;21967;-70
2022/01/30 10:37:26;;;;;;;53.10;10.18;;;;;;;;;;4965280;28;20018;-70
2022/01/30 10:40:08;;;;;;;53.90;9.70;;;;;;;;;;4946130;28;20090;-70
2022/01/30 10:42:35;;;;;;;49.00;11.25;;;;;;;;;;4961878;28;20049;-70
2022/01/30 10:45:01;;;;;;;52.17;9.75;;;;;;;;;;4964166;28;20397;-69
2022/01/30 10:47:29;;;;;;;49.17;9.45;;;;;;;;;;4949659;28;20192;-70
2022/01/30 10:49:55;;;;;;;43.90;8.55;;;;;;;;;;4961408;28;20073;-70
2022/01/30 10:52:22;;;;;;;47.13;8.38;;;;;;;;;;4948125;28;20487;-70
2022/01/30 10:54:49;;;;;;;54.78;10.30;;;;;;;;;;4974883;28;20045;-70
2022/01/30 10:57:15;;;;;;;52.40;9.05;;;;;;;;;;4961322;28;20017;-71
2022/01/30 10:59:52;;;;;;;44.63;9.70;;;;;;;;;;4950505;28;20076;-71
2022/01/30 11:02:22;;;;;;;44.80;8.00;;;;;;;;;;4964492;28;20045;-71
2022/01/30 11:04:48;;;;;;;47.53;9.65;;;;;;;;;;4948392;28;20073;-70
2022/01/30 11:07:20;;;;;;;45.58;8.43;;;;;;;;;;4963594;28;20056;-71
2022/01/30 11:10:04;;;;;;;50.00;9.93;;;;;;;;;;4957200;28;20069;-71
2022/01/30 11:12:37;;;;;;;50.30;11.07;;;;;;;;;;4962839;28;20058;-70
2022/01/30 11:15:18;;;;;;;36.75;8.60;;;;;;;;;;4962411;28;20145;-71
2022/01/30 11:17:44;;;;;;;37.63;8.07;;;;;;;;;;4950095;28;20054;-70
2022/01/30 11:20:11;;;;;;;50.90;9.75;;;;;;;;;;4964306;28;20160;-70
2022/01/30 11:22:37;;;;;;;48.67;11.25;;;;;;;;;;4947641;28;20505;-70
2022/01/30 11:25:04;;;;;;;43.67;8.82;;;;;;;;;;4962641;28;22622;-70
2022/01/30 11:27:29;;;;;;;48.20;10.07;;;;;;;;;;4956967;28;20046;-70
2022/01/30 11:29:54;;;;;;;40.30;8.48;;;;;;;;;;4956131;28;20037;-69
2022/01/30 11:32:21;;;;;;;50.67;10.50;;;;;;;;;;4976848;28;21112;-69
2022/01/30 11:34:46;;;;;;;46.45;11.57;;;;;;;;;;4955030;28;20253;-70
2022/01/30 11:37:13;;;;;;;60.17;13.10;;;;;;;;;;4970686;28;20493;-70
2022/01/30 11:39:46;;;;;;;58.83;16.20;;;;;;;;;;4953468;28;20204;-71
2022/01/30 11:42:35;;;;;;;60.40;13.18;;;;;;;;;;4953620;28;20049;-70
2022/01/30 11:45:03;;;;;;;66.85;15.93;;;;;;;;;;4964092;28;20458;-70
2022/01/30 11:47:29;;;;;;;54.75;12.02;;;;;;;;;;4946245;28;22708;-70
2022/01/30 11:50:00;;;;;;;58.80;14.40;;;;;;;;;;4960822;28;20683;-70
2022/01/30 11:52:44;;;;;;;49.28;9.68;;;;;;;;;;4947720;28;20046;-71
2022/01/30 11:55:09;;;;;;;;;;;;;;;;;;4965084;28;20037;-70
2022/01/30 11:57:41;;;;;;;55.10;13.52;;;;;;;;;;4962869;28;20016;-70
2022/01/30 12:00:07;;;;;;;47.03;9.40;;;;;;;;;;4951705;28;20624;-70
2022/01/30 12:02:33;;;;;;;50.00;8.40;;;;;;;;;;4963244;28;20036;-70
2022/01/30 12:05:00;;;;;;;47.65;12.07;;;;;;;;;;4947899;28;20064;-70
2022/01/30 12:07:31;;;;;;;48.05;10.00;;;;;;;;;;4963629;28;20049;-70
2022/01/30 12:10:15;;;;;;;47.15;9.93;;;;;;;;;;4957989;28;22690;-70
2022/01/30 12:12:40;;;;;;;;;;;;;;;;;;4954489;28;20077;-75
2022/01/30 12:15:06;;;;;;;50.25;8.82;;;;;;;;;;4963889;28;20327;-75
2022/01/30 12:17:44;;;;;;;50.67;10.45;;;;;;;;;;4947325;28;20054;-75
2022/01/30 12:20:09;;;;;;;56.15;11.45;;;;;;;;;;4965020;28;20022;-75
2022/01/30 12:22:34;;;;;;;50.20;9.43;;;;;;;;;;4959324;28;20052;-75
2022/01/30 12:25:18;;;;;;;61.83;14.82;;;;;;;;;;4954058;28;20050;-75
2022/01/30 12:27:48;;;;;;;49.22;11.05;;;;;;;;;;4962710;28;20037;-75
2022/01/30 12:30:32;;;;;;;51.60;9.00;;;;;;;;;;4951787;28;20137;-74
2022/01/30 12:32:57;;;;;;;50.58;8.60;;;;;;;;;;4981982;28;20420;-75
2022/01/30 12:35:23;;;;;;;51.25;8.23;;;;;;;;;;4949446;28;20053;-75
2022/01/30 12:37:48;;;;;;;46.28;8.07;;;;;;;;;;4964775;28;20116;-75
2022/01/30 12:40:15;;;;;;;55.22;8.93;;;;;;;;;;4961037;28;20022;-75
2022/01/30 12:42:41;;;;;;;51.75;9.20;;;;;;;;;;4958112;28;20058;-75
2022/01/30 12:45:11;;;;;;;63.15;11.63;;;;;;;;;;4967979;28;20629;-75
2022/01/30 12:47:47;;;;;;;48.00;9.88;;;;;;;;;;4952689;28;20054;-75
2022/01/30 12:50:13;;;;;;;51.85;10.80;;;;;;;;;;4969890;28;20460;-73
2022/01/30 12:52:39;;;;;;;73.75;16.15;;;;;;;;;;4963178;28;20044;-75
2022/01/30 12:55:12;;;;;;;65.22;13.55;;;;;;;;;;4957177;28;20049;-75
2022/01/30 12:57:39;;;;;;;70.75;14.52;;;;;;;;;;4967985;28;20065;-75
2022/01/30 13:00:06;;;;;;;57.92;13.25;;;;;;;;;;4952049;28;20690;-75
2022/01/30 13:02:37;;;;;;;48.13;10.48;;;;;;;;;;4969839;28;20053;-75
2022/01/30 13:05:07;;;;;;;57.97;11.68;;;;;;;;;;4952708;28;20038;-75
2022/01/30 13:07:32;;;;;;;53.72;11.85;;;;;;;;;;4967398;28;20128;-75
2022/01/30 13:10:12;;;;;;;50.33;9.95;;;;;;;;;;4966867;28;20026;-75
2022/01/30 13:12:37;;;;;;;46.55;8.45;;;;;;;;;;4957046;28;24018;-75
2022/01/30 13:15:05;;;;;;;43.50;8.55;;;;;;;;;;4969845;28;20025;-75
2022/01/30 13:17:31;;;;;;;58.25;9.15;;;;;;;;;;4953962;28;20068;-75
2022/01/30 13:19:56;;;;;;;54.22;8.98;;;;;;;;;;4970789;28;20030;-75
2022/01/30 13:22:29;;;;;;;45.95;7.75;;;;;;;;;;4963741;28;20063;-75
2022/01/30 13:24:59;;;;;;;45.03;7.35;;;;;;;;;;4960772;28;20042;-75
2022/01/30 13:27:25;;;;;;;42.58;8.52;;;;;;;;;;4968422;28;20035;-75
2022/01/30 13:29:53;;;;;;;41.88;7.55;;;;;;;;;;4952274;28;20085;-75
2022/01/30 13:32:19;;;;;;;48.83;9.05;;;;;;;;;;4967875;28;20030;-75
2022/01/30 13:34:46;;;;;;;55.72;11.50;;;;;;;;;;4963395;28;20810;-75
2022/01/30 13:37:14;;;;;;;53.38;10.93;;;;;;;;;;4958245;28;20080;-75
2022/01/30 13:40:48;;;;;;;50.20;11.48;;;;;;;;;;4968449;28;20052;-74
2022/01/30 13:48:12;;;;;;;45.08;9.90;;;;;;;;;;4955292;28;20633;-75
2022/01/30 13:50:49;;;;;;;40.75;7.25;;;;;;;;;;4981870;28;20132;-75
2022/01/30 13:53:15;;;;;;;56.95;14.77;;;;;;;;;;4961916;28;20053;-75
2022/01/30 13:55:56;;;;;;;42.60;10.07;;;;;;;;;;4974664;28;20033;-75
2022/01/30 13:58:22;;;;;;;42.53;7.70;;;;;;;;;;4975675;28;21230;-75
2022/01/30 14:00:47;;;;;;;44.47;10.73;;;;;;;;;;4943380;28;20462;-75
2022/01/30 14:03:23;;;;;;;47.80;8.73;;;;;;;;;;4971507;28;20107;-75
2022/01/30 14:05:49;;;;;;;40.87;9.50;;;;;;;;;;4953480;28;20074;-75
2022/01/30 14:08:15;;;;;;;46.13;12.63;;;;;;;;;;4971830;28;20257;-75
2022/01/30 14:10:41;;;;;;;48.67;10.82;;;;;;;;;;4965956;28;20036;-76
2022/01/30 14:13:11;;;;;;;44.80;9.98;;;;;;;;;;4958075;28;20057;-75
2022/01/30 14:15:37;;;;;;;64.93;10.93;;;;;;;;;;4967309;28;20168;-75
2022/01/30 14:18:05;;;;;;;60.55;10.50;;;;;;;;;;4951413;28;20085;-74
2022/01/30 14:20:31;;;;;;;42.70;9.45;;;;;;;;;;4967263;28;20034;-75
2022/01/30 14:23:07;;;;;;;44.30;8.27;;;;;;;;;;4955996;28;20112;-70
2022/01/30 14:25:32;;;;;;;61.20;14.48;;;;;;;;;;4975336;28;20052;-75
2022/01/30 14:27:58;;;;;;;66.45;15.30;;;;;;;;;;4971569;28;20405;-75
2022/01/30 14:30:37;;;;;;;65.90;11.77;;;;;;;;;;4949345;28;20056;-75
2022/01/30 14:33:03;;;;;;;47.33;10.90;;;;;;;;;;4972259;28;20017;-75
2022/01/30 14:35:34;;;;;;;55.22;8.23;;;;;;;;;;4955976;28;20060;-75
2022/01/30 14:38:00;;;;;;;53.00;11.55;;;;;;;;;;4972242;28;20044;-75
2022/01/30 14:40:25;;;;;;;69.28;13.02;;;;;;;;;;4971368;28;20026;-75
2022/01/30 14:42:50;;;;;;;56.22;12.73;;;;;;;;;;4957547;28;20054;-75
2022/01/30 14:45:16;;;;;;;60.00;13.60;;;;;;;;;;4971327;28;20038;-75
2022/01/30 14:47:42;;;;;;;58.05;12.70;;;;;;;;;;4955791;28;20073;-75
2022/01/30 14:50:07;;;;;;;63.15;11.68;;;;;;;;;;4969544;28;20026;-75
2022/01/30 14:52:33;;;;;;;56.75;11.55;;;;;;;;;;4979921;28;20042;-75
2022/01/30 14:54:58;;;;;;;67.10;16.40;;;;;;;;;;4957227;28;20056;-75
2022/01/30 14:57:24;;;;;;;65.68;16.27;;;;;;;;;;4972796;28;20033;-75
2022/01/30 14:59:50;;;;;;;56.17;15.98;;;;;;;;;;4959727;28;21083;-75
2022/01/30 15:02:15;;;;;;;57.17;12.85;;;;;;;;;;4972548;28;20080;-75
2022/01/30 15:04:40;;;;;;;44.83;10.05;;;;;;;;;;4969157;28;20036;-75
2022/01/30 15:07:07;;;;;;;41.80;9.02;;;;;;;;;;4954768;28;20049;-75
2022/01/30 15:09:32;;;;;;;56.90;7.68;;;;;;;;;;4968772;28;20026;-75
2022/01/30 15:11:58;;;;;;;60.35;9.63;;;;;;;;;;4954613;28;20046;-75
2022/01/30 15:14:25;;;;;;;58.25;8.52;;;;;;;;;;4972806;28;20017;-75
2022/01/30 15:16:52;;;;;;;48.85;7.57;;;;;;;;;;4971811;28;21008;-75